Time;durP1;ratioP1;P1;durP2;ratioP2;P2;SDS_P1;SDS_P2;PMS_P1;PMS_P2;Temp;Humidity;BMP_temperature;BMP_pressure;BME280_temperature;BME280_humidity;BME280_pressure;Samples;Min_cycle;Max_cycle;Signal;HPM_P1;HPM_P2
2021/12/26 00:00:27;;;;;;;8.20;5.38;;;;;;;;;;5006345;28;20030;-80
2021/12/26 00:02:53;;;;;;;9.00;5.85;;;;;;;;;;5007319;28;20108;-79
2021/12/26 00:05:20;;;;;;;8.40;5.45;;;;;;;;;;5005537;28;20507;-80
2021/12/26 00:07:46;;;;;;;9.05;5.90;;;;;;;;;;5005733;28;20065;-80
2021/12/26 00:10:14;;;;;;;9.25;5.78;;;;;;;;;;5005121;28;20035;-78
2021/12/26 00:12:40;;;;;;;9.32;5.72;;;;;;;;;;5004445;28;20398;-79
2021/12/26 00:15:06;;;;;;;9.77;5.97;;;;;;;;;;5004544;28;20026;-79
2021/12/26 00:17:32;;;;;;;7.82;5.65;;;;;;;;;;5004840;28;20026;-81
2021/12/26 00:19:59;;;;;;;10.05;6.38;;;;;;;;;;5004996;28;20444;-80
2021/12/26 00:22:26;;;;;;;9.60;6.40;;;;;;;;;;5005187;28;20026;-80
2021/12/26 00:24:52;;;;;;;9.68;6.25;;;;;;;;;;5002437;28;20014;-81
2021/12/26 00:27:19;;;;;;;8.63;5.55;;;;;;;;;;5004261;28;20089;-80
2021/12/26 00:29:45;;;;;;;8.73;5.95;;;;;;;;;;5002907;28;20109;-79
2021/12/26 00:32:11;;;;;;;9.38;5.93;;;;;;;;;;5003882;28;20442;-80
2021/12/26 00:34:37;;;;;;;14.15;7.20;;;;;;;;;;5004681;28;20026;-79
2021/12/26 00:37:04;;;;;;;9.88;5.95;;;;;;;;;;5003647;28;20072;-79
2021/12/26 00:39:31;;;;;;;10.18;6.57;;;;;;;;;;5003474;28;20486;-78
2021/12/26 00:41:57;;;;;;;9.57;6.28;;;;;;;;;;5003278;28;20173;-80
2021/12/26 00:44:23;;;;;;;9.98;5.90;;;;;;;;;;5001910;28;20050;-78
2021/12/26 00:46:50;;;;;;;11.00;6.97;;;;;;;;;;5003048;28;20101;-79
2021/12/26 00:49:17;;;;;;;12.80;7.28;;;;;;;;;;5003461;28;20045;-79
2021/12/26 00:51:43;;;;;;;10.18;7.07;;;;;;;;;;5002413;28;20038;-80
2021/12/26 00:54:09;;;;;;;9.95;6.35;;;;;;;;;;5000425;28;20034;-81
2021/12/26 00:56:35;;;;;;;11.23;6.68;;;;;;;;;;4999027;28;20173;-81
2021/12/26 00:59:01;;;;;;;10.75;6.68;;;;;;;;;;5002112;28;20085;-80
2021/12/26 01:01:27;;;;;;;10.88;6.60;;;;;;;;;;5000361;28;20081;-80
2021/12/26 01:03:53;;;;;;;14.30;7.75;;;;;;;;;;4999956;28;20140;-79
2021/12/26 01:06:19;;;;;;;10.60;6.82;;;;;;;;;;5000343;28;20027;-80
2021/12/26 01:08:48;;;;;;;11.30;7.10;;;;;;;;;;5000765;28;20088;-80
2021/12/26 01:11:32;;;;;;;12.38;7.00;;;;;;;;;;5001361;28;20109;-79
2021/12/26 01:13:58;;;;;;;13.13;6.90;;;;;;;;;;5001357;28;20486;-79
2021/12/26 01:16:26;;;;;;;15.93;8.20;;;;;;;;;;5001818;28;20081;-79
2021/12/26 01:18:55;;;;;;;11.25;7.28;;;;;;;;;;5003128;28;20077;-79
2021/12/26 01:21:25;;;;;;;17.38;9.10;;;;;;;;;;5000926;28;20025;-78
2021/12/26 01:24:00;;;;;;;14.73;8.73;;;;;;;;;;4998988;28;20023;-79
2021/12/26 01:26:26;;;;;;;11.85;7.95;;;;;;;;;;5000277;28;20026;-80
2021/12/26 01:28:53;;;;;;;12.52;7.93;;;;;;;;;;5001038;28;20030;-80
2021/12/26 01:31:20;;;;;;;14.63;7.82;;;;;;;;;;5004377;28;20073;-80
2021/12/26 01:33:47;;;;;;;14.07;8.63;;;;;;;;;;5006015;28;20026;-79
2021/12/26 01:36:13;;;;;;;14.73;8.48;;;;;;;;;;5003853;28;20069;-79
2021/12/26 01:38:39;;;;;;;14.10;8.55;;;;;;;;;;5005123;28;20022;-80
2021/12/26 01:41:09;;;;;;;15.38;9.10;;;;;;;;;;5005605;28;20654;-80
2021/12/26 01:43:36;;;;;;;15.88;9.50;;;;;;;;;;5010240;28;20031;-80
2021/12/26 01:46:02;;;;;;;17.13;8.50;;;;;;;;;;5003492;28;20544;-81
2021/12/26 01:48:28;;;;;;;16.65;8.63;;;;;;;;;;5004008;28;20031;-79
2021/12/26 01:50:55;;;;;;;18.83;8.82;;;;;;;;;;5006676;28;20030;-78
2021/12/26 01:53:23;;;;;;;15.18;8.90;;;;;;;;;;5006919;28;20033;-79
2021/12/26 01:55:49;;;;;;;20.55;9.30;;;;;;;;;;5006294;28;20026;-78
2021/12/26 01:58:23;;;;;;;14.63;8.50;;;;;;;;;;5006547;28;20037;-79
2021/12/26 02:01:00;;;;;;;20.15;9.20;;;;;;;;;;5007279;28;20019;-80
2021/12/26 02:03:26;;;;;;;15.85;9.05;;;;;;;;;;5004853;28;20429;-80
2021/12/26 02:05:52;;;;;;;17.63;8.95;;;;;;;;;;5004390;28;20126;-80
2021/12/26 02:08:18;;;;;;;16.08;8.60;;;;;;;;;;5006073;28;20388;-80
2021/12/26 02:10:44;;;;;;;14.00;8.18;;;;;;;;;;5006571;28;20065;-79
2021/12/26 02:13:10;;;;;;;16.70;9.77;;;;;;;;;;5005119;28;20461;-80
2021/12/26 02:15:36;;;;;;;14.48;8.63;;;;;;;;;;5005939;28;20074;-79
2021/12/26 02:18:04;;;;;;;18.42;8.38;;;;;;;;;;5006090;28;20038;-80
2021/12/26 02:21:18;;;;;;;17.65;9.43;;;;;;;;;;5006403;28;20054;-80
2021/12/26 02:23:34;;;;;;;18.75;10.40;;;;;;;;;;5005962;28;20030;-79
2021/12/26 02:28:45;;;;;;;18.88;8.65;;;;;;;;;;5006883;28;20533;-79
2021/12/26 02:31:12;;;;;;;15.32;8.60;;;;;;;;;;5007219;28;20027;-78
2021/12/26 02:33:38;;;;;;;14.50;7.93;;;;;;;;;;5005137;28;20132;-80
2021/12/26 02:36:05;;;;;;;16.08;8.80;;;;;;;;;;5005646;28;20030;-80
2021/12/26 02:38:32;;;;;;;16.77;8.27;;;;;;;;;;5006226;28;20028;-80
2021/12/26 02:40:58;;;;;;;15.18;8.50;;;;;;;;;;5003488;28;20026;-78
2021/12/26 02:43:25;;;;;;;17.45;8.70;;;;;;;;;;5005797;28;20110;-78
2021/12/26 02:45:51;;;;;;;15.80;8.23;;;;;;;;;;5005784;28;20066;-79
2021/12/26 02:48:18;;;;;;;15.70;8.95;;;;;;;;;;5005805;28;20022;-80
2021/12/26 02:50:45;;;;;;;18.80;8.43;;;;;;;;;;5006297;28;20081;-79
2021/12/26 02:53:13;;;;;;;18.05;9.05;;;;;;;;;;5006123;28;20030;-80
2021/12/26 02:55:41;;;;;;;16.23;8.75;;;;;;;;;;5006198;28;20026;-79
2021/12/26 02:58:08;;;;;;;17.55;9.20;;;;;;;;;;5005462;28;20104;-80
2021/12/26 03:00:36;;;;;;;26.27;9.02;;;;;;;;;;5005985;28;20074;-78
2021/12/26 03:03:04;;;;;;;16.85;9.02;;;;;;;;;;5006932;28;20053;-78
2021/12/26 03:05:30;;;;;;;15.30;8.98;;;;;;;;;;5008038;28;20536;-80
2021/12/26 03:07:56;;;;;;;17.27;9.00;;;;;;;;;;5006601;28;20073;-80
2021/12/26 03:10:25;;;;;;;14.20;8.32;;;;;;;;;;5008043;28;20402;-81
2021/12/26 03:12:58;;;;;;;19.92;9.40;;;;;;;;;;5008351;28;20042;-80
2021/12/26 03:15:25;;;;;;;16.65;8.70;;;;;;;;;;5008636;28;20038;-80
2021/12/26 03:17:52;;;;;;;18.50;8.77;;;;;;;;;;5007275;28;20030;-80
2021/12/26 03:20:19;;;;;;;17.00;8.45;;;;;;;;;;5007894;28;20026;-80
2021/12/26 03:22:46;;;;;;;21.33;9.68;;;;;;;;;;5005995;28;20026;-80
2021/12/26 03:25:13;;;;;;;24.33;9.75;;;;;;;;;;5007436;28;20057;-80
2021/12/26 03:27:39;;;;;;;16.08;7.75;;;;;;;;;;5007292;28;20054;-80
2021/12/26 03:30:07;;;;;;;18.27;9.00;;;;;;;;;;5005773;28;20046;-81
2021/12/26 03:32:33;;;;;;;23.85;9.95;;;;;;;;;;5007591;28;20069;-80
2021/12/26 03:34:59;;;;;;;18.05;9.13;;;;;;;;;;5005922;28;20030;-79
2021/12/26 03:37:25;;;;;;;16.10;8.95;;;;;;;;;;5007415;28;20030;-81
2021/12/26 03:39:51;;;;;;;16.73;8.75;;;;;;;;;;5007203;28;20045;-80
2021/12/26 03:42:21;;;;;;;18.23;9.00;;;;;;;;;;5007456;28;20026;-81
2021/12/26 03:44:47;;;;;;;24.90;9.95;;;;;;;;;;5006816;28;20105;-80
2021/12/26 03:47:13;;;;;;;28.50;9.73;;;;;;;;;;5007846;28;20030;-81
2021/12/26 03:49:39;;;;;;;19.23;8.98;;;;;;;;;;5006412;28;20072;-80
2021/12/26 03:52:05;;;;;;;21.25;9.63;;;;;;;;;;5006661;28;20034;-81
2021/12/26 03:54:31;;;;;;;23.40;9.65;;;;;;;;;;5006993;28;20090;-81
2021/12/26 03:56:57;;;;;;;19.50;8.95;;;;;;;;;;5006588;28;20034;-81
2021/12/26 03:59:23;;;;;;;23.52;10.32;;;;;;;;;;5006782;28;20167;-80
2021/12/26 04:01:49;;;;;;;20.65;9.80;;;;;;;;;;5006869;28;20118;-79
2021/12/26 04:04:15;;;;;;;20.08;9.68;;;;;;;;;;5005094;28;20026;-80
2021/12/26 04:06:42;;;;;;;20.98;9.75;;;;;;;;;;5007122;28;20046;-81
2021/12/26 04:09:08;;;;;;;22.17;9.77;;;;;;;;;;5005043;28;20041;-80
2021/12/26 04:11:36;;;;;;;19.27;9.93;;;;;;;;;;5008180;28;20027;-80
2021/12/26 04:14:02;;;;;;;20.08;10.75;;;;;;;;;;5006692;28;20034;-81
2021/12/26 04:16:28;;;;;;;27.02;9.57;;;;;;;;;;5005070;28;20068;-81
2021/12/26 04:18:54;;;;;;;16.70;8.63;;;;;;;;;;5005979;28;20030;-80
2021/12/26 04:21:20;;;;;;;24.92;10.02;;;;;;;;;;5006385;28;20091;-81
2021/12/26 04:23:46;;;;;;;31.38;9.93;;;;;;;;;;5004686;28;20030;-80
2021/12/26 04:26:12;;;;;;;24.55;10.77;;;;;;;;;;5005035;28;20122;-80
2021/12/26 04:28:38;;;;;;;20.95;9.25;;;;;;;;;;5012831;28;20026;-80
2021/12/26 04:31:04;;;;;;;20.00;9.32;;;;;;;;;;5015602;28;20029;-81
2021/12/26 04:33:30;;;;;;;20.23;10.15;;;;;;;;;;5012887;28;20045;-79
2021/12/26 04:35:56;;;;;;;17.55;9.55;;;;;;;;;;5015449;28;20048;-80
2021/12/26 04:38:23;;;;;;;19.27;10.18;;;;;;;;;;5016753;28;20050;-80
2021/12/26 04:40:51;;;;;;;20.90;10.82;;;;;;;;;;5014839;28;20022;-79
2021/12/26 04:43:20;;;;;;;21.83;10.15;;;;;;;;;;5008689;28;20031;-79
2021/12/26 04:45:46;;;;;;;36.47;10.00;;;;;;;;;;5006210;28;20030;-80
2021/12/26 04:48:12;;;;;;;17.85;9.38;;;;;;;;;;5010634;28;20073;-80
2021/12/26 04:50:38;;;;;;;24.83;10.70;;;;;;;;;;5010177;28;20042;-78
2021/12/26 04:53:04;;;;;;;26.13;11.80;;;;;;;;;;5013048;28;20029;-82
2021/12/26 04:55:30;;;;;;;21.08;10.75;;;;;;;;;;5016522;28;20050;-81
2021/12/26 04:57:57;;;;;;;20.02;10.93;;;;;;;;;;5014113;28;20041;-80
2021/12/26 05:00:26;;;;;;;27.83;11.10;;;;;;;;;;5006185;28;20061;-80
2021/12/26 05:02:52;;;;;;;45.10;12.52;;;;;;;;;;5004056;28;20091;-81
2021/12/26 05:05:18;;;;;;;31.17;12.73;;;;;;;;;;5004831;28;20030;-81
2021/12/26 05:07:44;;;;;;;25.88;11.32;;;;;;;;;;5004855;28;20035;-81
2021/12/26 05:13:54;;;;;;;23.75;12.73;;;;;;;;;;4969625;28;20109;-83
2021/12/26 05:22:32;;;;;;;32.17;11.77;;;;;;;;;;5970603;23;20338;-84
2021/12/26 05:38:22;;;;;;;24.55;11.40;;;;;;;;;;5005588;28;20033;-83
2021/12/26 06:20:53;;;;;;;20.38;10.55;;;;;;;;;;4967529;29;20027;-83
2021/12/26 06:23:24;;;;;;;23.13;10.25;;;;;;;;;;4967233;29;20023;-83
2021/12/26 06:44:18;;;;;;;20.20;10.18;;;;;;;;;;4885958;29;20045;-84
2021/12/26 06:56:04;;;;;;;25.65;11.10;;;;;;;;;;5006761;28;20465;-83
2021/12/26 06:58:50;;;;;;;22.63;10.57;;;;;;;;;;5002959;28;20121;-83
2021/12/26 07:05:14;;;;;;;19.67;9.57;;;;;;;;;;4923122;29;20042;-84
2021/12/26 07:13:30;;;;;;;24.52;11.90;;;;;;;;;;4941701;29;20083;-84
2021/12/26 07:15:56;;;;;;;23.55;11.90;;;;;;;;;;4993257;28;20070;-83
2021/12/26 07:18:22;;;;;;;28.67;12.25;;;;;;;;;;4989988;28;20027;-83
2021/12/26 07:20:48;;;;;;;24.50;11.98;;;;;;;;;;4966005;28;20045;-82
2021/12/26 07:23:14;;;;;;;21.83;10.98;;;;;;;;;;4983637;28;20431;-82
2021/12/26 07:26:11;;;;;;;22.70;11.55;;;;;;;;;;4966425;28;20208;-83
2021/12/26 07:28:37;;;;;;;21.77;11.05;;;;;;;;;;4945602;28;20031;-82
2021/12/26 07:31:03;;;;;;;21.10;10.63;;;;;;;;;;4964388;28;20042;-83
2021/12/26 07:33:29;;;;;;;23.23;11.32;;;;;;;;;;4962473;28;20473;-84
2021/12/26 07:35:55;;;;;;;24.23;11.30;;;;;;;;;;4980246;28;20022;-83
2021/12/26 07:38:21;;;;;;;23.52;10.15;;;;;;;;;;4979532;28;20026;-83
2021/12/26 07:40:47;;;;;;;21.35;10.43;;;;;;;;;;4961922;28;20027;-84
2021/12/26 07:43:14;;;;;;;24.88;10.23;;;;;;;;;;4962658;28;20057;-84
2021/12/26 07:45:40;;;;;;;18.83;10.52;;;;;;;;;;4962156;28;20027;-83
2021/12/26 07:48:06;;;;;;;19.00;10.50;;;;;;;;;;4962802;28;20391;-83
2021/12/26 07:50:33;;;;;;;22.08;10.35;;;;;;;;;;4980290;28;20041;-83
2021/12/26 07:53:05;;;;;;;17.55;9.93;;;;;;;;;;4961808;28;20479;-84
2021/12/26 07:55:31;;;;;;;23.50;11.73;;;;;;;;;;4969767;28;20042;-84
2021/12/26 07:57:57;;;;;;;19.77;9.98;;;;;;;;;;5000187;28;20011;-84
2021/12/26 08:00:23;;;;;;;21.35;10.57;;;;;;;;;;4989316;28;20034;-84
2021/12/26 08:02:49;;;;;;;23.88;10.23;;;;;;;;;;5007930;28;20071;-84
2021/12/26 08:05:16;;;;;;;20.00;11.27;;;;;;;;;;4994462;28;20030;-84
2021/12/26 08:07:42;;;;;;;22.33;11.18;;;;;;;;;;4978053;28;20049;-83
2021/12/26 08:13:15;;;;;;;23.63;11.70;;;;;;;;;;4975880;28;20038;-84
2021/12/26 08:16:10;;;;;;;;;;;;;;;;;;;;;
2021/12/26 08:18:47;;;;;;;29.83;13.27;;;;;;;;;;4931103;29;20044;-83
2021/12/26 08:21:13;;;;;;;25.48;11.88;;;;;;;;;;4935194;29;20047;-84
2021/12/26 08:23:39;;;;;;;25.50;13.27;;;;;;;;;;4976254;28;20038;-84
2021/12/26 08:26:05;;;;;;;23.70;12.07;;;;;;;;;;4996101;28;20069;-83
2021/12/26 08:28:31;;;;;;;25.83;12.32;;;;;;;;;;4997676;28;20022;-83
2021/12/26 08:30:58;;;;;;;27.80;13.20;;;;;;;;;;4980366;28;20034;-84
2021/12/26 08:33:24;;;;;;;32.60;14.70;;;;;;;;;;4978536;28;20074;-85
2021/12/26 08:35:51;;;;;;;25.92;13.77;;;;;;;;;;4975059;28;20027;-83
2021/12/26 08:38:21;;;;;;;27.75;14.20;;;;;;;;;;4973145;28;20054;-85
2021/12/26 08:40:48;;;;;;;31.73;14.73;;;;;;;;;;4977087;28;20042;-85
2021/12/26 08:43:14;;;;;;;29.95;14.63;;;;;;;;;;4982370;28;20042;-85
2021/12/26 08:45:40;;;;;;;27.25;13.18;;;;;;;;;;4979125;28;20470;-84
2021/12/26 08:48:06;;;;;;;24.48;12.88;;;;;;;;;;4978502;28;20027;-84
2021/12/26 08:50:32;;;;;;;24.85;12.88;;;;;;;;;;4976935;28;20383;-84
2021/12/26 08:53:32;;;;;;;23.08;12.23;;;;;;;;;;4976401;28;20031;-83
2021/12/26 08:56:01;;;;;;;27.38;13.93;;;;;;;;;;4975892;28;20080;-84
2021/12/26 09:04:36;;;;;;;23.05;11.73;;;;;;;;;;4998264;28;20033;-84
2021/12/26 09:23:01;;;;;;;24.20;11.65;;;;;;;;;;4896058;29;20124;-84
2021/12/26 09:25:54;;;;;;;22.90;11.80;;;;;;;;;;4896172;29;20037;-84
2021/12/26 09:34:56;;;;;;;21.33;11.77;;;;;;;;;;4942075;28;20063;-85
2021/12/26 09:40:42;;;;;;;24.50;12.85;;;;;;;;;;4914464;29;20438;-86
2021/12/26 09:43:08;;;;;;;21.40;11.98;;;;;;;;;;4971878;28;20109;-84
2021/12/26 09:46:05;;;;;;;18.63;11.57;;;;;;;;;;4993952;28;20081;-84
2021/12/26 09:51:50;;;;;;;23.55;12.77;;;;;;;;;;4998687;28;20053;-84
2021/12/26 09:54:51;;;;;;;;;;;;;;;;;;;;;
2021/12/26 10:00:48;;;;;;;25.00;12.55;;;;;;;;;;5076021;23;20049;-84
2021/12/26 10:09:29;;;;;;;19.92;10.60;;;;;;;;;;5010736;28;20105;-84
2021/12/26 10:11:56;;;;;;;19.88;9.90;;;;;;;;;;5017489;28;20029;-85
2021/12/26 10:17:56;;;;;;;18.77;9.60;;;;;;;;;;4919552;29;20039;-86
2021/12/26 10:23:31;;;;;;;14.52;8.38;;;;;;;;;;5012365;28;20406;-85
2021/12/26 10:26:18;;;;;;;15.43;8.02;;;;;;;;;;4999601;28;20464;-86
2021/12/26 10:29:38;;;;;;;13.13;7.43;;;;;;;;;;4997244;28;20014;-86
2021/12/26 10:31:57;;;;;;;12.02;6.68;;;;;;;;;;4996087;28;20065;-86
2021/12/26 10:34:25;;;;;;;12.35;7.53;;;;;;;;;;4997975;28;20015;-84
2021/12/26 10:36:52;;;;;;;13.27;6.97;;;;;;;;;;4997913;28;20395;-85
2021/12/26 10:39:20;;;;;;;11.00;7.03;;;;;;;;;;4997825;28;20014;-85
2021/12/26 10:41:57;;;;;;;10.77;6.20;;;;;;;;;;4997413;28;20119;-86
2021/12/26 10:47:52;;;;;;;11.85;6.13;;;;;;;;;;4957009;29;20039;-85
2021/12/26 11:18:51;;;;;;;;;;;;;;;;;;;;;
2021/12/26 11:27:18;;;;;;;6.13;4.40;;;;;;;;;;4940813;29;20043;-85
2021/12/26 11:29:44;;;;;;;5.68;3.90;;;;;;;;;;5002695;28;20064;-84
2021/12/26 11:32:29;;;;;;;6.20;4.00;;;;;;;;;;5020491;28;20438;-85
2021/12/26 11:34:56;;;;;;;5.07;3.88;;;;;;;;;;5020917;28;20462;-84
2021/12/26 12:06:33;;;;;;;8.88;5.22;;;;;;;;;;4943785;28;20064;-84
2021/12/26 12:09:19;;;;;;;8.10;4.90;;;;;;;;;;4974157;28;20037;-85
2021/12/26 12:12:10;;;;;;;8.15;5.13;;;;;;;;;;4977090;28;20042;-85
2021/12/26 12:17:40;;;;;;;8.65;5.45;;;;;;;;;;4980264;28;20086;-84
2021/12/26 12:20:44;;;;;;;;;;;;;;;;;;;;;
2021/12/26 12:26:40;;;;;;;12.17;6.77;;;;;;;;;;4914560;29;20105;-84
2021/12/26 12:32:09;;;;;;;11.93;5.93;;;;;;;;;;4905611;29;20069;-84
2021/12/26 12:35:03;;;;;;;;;;;;;;;;;;;;;
2021/12/26 12:37:56;;;;;;;12.75;6.57;;;;;;;;;;4935532;28;20113;-84
2021/12/26 12:43:55;;;;;;;10.50;6.53;;;;;;;;;;4997799;28;20105;-86
2021/12/26 12:58:01;;;;;;;14.95;7.50;;;;;;;;;;4954060;28;20046;-83
2021/12/26 13:00:27;;;;;;;12.60;7.70;;;;;;;;;;4961052;28;20046;-84
2021/12/26 13:06:29;;;;;;;14.32;8.13;;;;;;;;;;5016494;28;20049;-84
2021/12/26 13:15:29;;;;;;;29.30;15.57;;;;;;;;;;4922156;29;20047;-85
2021/12/26 13:35:54;;;;;;;10.93;6.88;;;;;;;;;;5025836;28;20036;-83
2021/12/26 13:38:51;;;;;;;9.32;6.10;;;;;;;;;;4970726;28;20039;-84
2021/12/26 13:48:04;;;;;;;9.48;6.03;;;;;;;;;;5004833;28;20045;-83
2021/12/26 13:53:37;;;;;;;10.35;5.35;;;;;;;;;;4942349;29;20516;-83
2021/12/26 13:56:03;;;;;;;9.65;6.53;;;;;;;;;;4942726;29;20055;-84
2021/12/26 13:58:36;;;;;;;10.57;6.45;;;;;;;;;;4928540;29;20031;-84
2021/12/26 14:01:13;;;;;;;12.63;6.93;;;;;;;;;;4942900;29;20024;-82
2021/12/26 14:03:44;;;;;;;15.32;7.80;;;;;;;;;;4930072;29;20030;-83
2021/12/26 14:06:13;;;;;;;18.13;8.48;;;;;;;;;;5025929;28;20057;-83
2021/12/26 14:08:39;;;;;;;13.20;7.55;;;;;;;;;;5025018;28;20133;-84
2021/12/26 14:11:09;;;;;;;35.53;9.13;;;;;;;;;;5007722;28;20030;-84
2021/12/26 14:14:04;;;;;;;14.57;8.82;;;;;;;;;;5007525;28;20041;-84
2021/12/26 14:16:34;;;;;;;32.72;9.88;;;;;;;;;;5008174;28;20036;-82
2021/12/26 14:19:13;;;;;;;15.68;8.05;;;;;;;;;;5155116;23;20053;-82
2021/12/26 14:21:47;;;;;;;21.48;8.43;;;;;;;;;;5011615;28;20081;-85
2021/12/26 14:24:18;;;;;;;20.23;8.90;;;;;;;;;;5003443;28;20021;-83
2021/12/26 14:26:45;;;;;;;13.02;7.63;;;;;;;;;;5019157;28;20019;-86
2021/12/26 14:29:14;;;;;;;20.52;8.23;;;;;;;;;;5009774;28;20039;-82
2021/12/26 14:31:47;;;;;;;14.60;7.97;;;;;;;;;;4999716;28;20479;-82
2021/12/26 14:34:16;;;;;;;26.60;8.65;;;;;;;;;;4980494;28;20046;-83
2021/12/26 14:39:46;;;;;;;12.25;6.90;;;;;;;;;;5227426;23;20050;-83
2021/12/26 15:07:00;;;;;;;6.53;4.50;;;;;;;;;;5016176;28;20057;-83
2021/12/26 15:18:30;;;;;;;11.57;4.00;;;;;;;;;;4956865;29;20418;-83
2021/12/26 15:20:57;;;;;;;5.47;3.97;;;;;;;;;;4936982;29;20115;-83
2021/12/26 15:37:36;;;;;;;4.55;3.22;;;;;;;;;;5313550;23;20050;-84
2021/12/26 15:43:06;;;;;;;5.80;3.75;;;;;;;;;;5019660;28;20049;-84
2021/12/26 15:45:32;;;;;;;7.82;3.88;;;;;;;;;;5017525;28;20029;-84
2021/12/26 15:47:58;;;;;;;7.28;4.43;;;;;;;;;;4999583;28;20088;-83
2021/12/26 15:50:24;;;;;;;4.72;3.45;;;;;;;;;;5017830;28;20066;-84
2021/12/26 15:55:54;;;;;;;5.15;3.28;;;;;;;;;;4937948;29;20031;-83
2021/12/26 15:58:20;;;;;;;6.40;4.25;;;;;;;;;;5010169;28;20224;-84
2021/12/26 16:00:55;;;;;;;5.13;3.42;;;;;;;;;;5000255;28;20113;-85
2021/12/26 16:03:56;;;;;;;6.50;4.00;;;;;;;;;;5001215;28;20592;-85
2021/12/26 16:06:43;;;;;;;5.60;4.03;;;;;;;;;;5020084;28;20037;-85
2021/12/26 16:21:55;;;;;;;7.68;4.82;;;;;;;;;;5002237;28;20370;-84
2021/12/26 16:27:29;;;;;;;5.63;4.10;;;;;;;;;;5003641;28;20067;-83
2021/12/26 16:30:18;;;;;;;;;;;;;;;;;;;;;
2021/12/26 16:38:52;;;;;;;6.97;5.15;;;;;;;;;;4939159;29;20416;-83
2021/12/26 16:41:49;;;;;;;;;;;;;;;;;;;;;
2021/12/26 16:44:16;;;;;;;6.45;4.15;;;;;;;;;;4942803;28;20114;-83
2021/12/26 16:49:46;;;;;;;5.20;3.55;;;;;;;;;;5004990;23;20081;-84
2021/12/26 16:58:24;;;;;;;5.60;4.00;;;;;;;;;;5000667;28;20033;-84
2021/12/26 17:03:56;;;;;;;5.10;3.83;;;;;;;;;;5003853;28;20544;-84
2021/12/26 17:07:09;;;;;;;;;;;;;;;;;;;;;
2021/12/26 17:12:12;;;;;;;5.22;3.65;;;;;;;;;;5280721;23;20454;-85
2021/12/26 17:17:41;;;;;;;6.47;4.53;;;;;;;;;;4974452;28;20520;-84
2021/12/26 17:20:13;;;;;;;7.85;4.88;;;;;;;;;;4974442;28;20110;-85
2021/12/26 17:22:42;;;;;;;7.40;4.82;;;;;;;;;;4957743;28;20027;-86
2021/12/26 17:25:11;;;;;;;7.35;4.63;;;;;;;;;;4953624;29;20023;-87
2021/12/26 18:11:47;;;;;;;7.88;5.55;;;;;;;;;;4993527;28;20043;-85
2021/12/26 18:14:15;;;;;;;9.10;5.57;;;;;;;;;;4995542;28;20085;-86
2021/12/26 18:30:09;;;;;;;;;;;;;;;;;;;;;
2021/12/26 18:38:52;;;;;;;6.07;4.03;;;;;;;;;;5066674;22;20044;-86
2021/12/26 18:45:01;;;;;;;6.80;3.90;;;;;;;;;;4956062;29;20078;-87
2021/12/26 18:53:48;;;;;;;6.82;4.63;;;;;;;;;;5089083;22;20033;-86
2021/12/26 19:03:06;;;;;;;;;;;;;;;;;;;;;
2021/12/26 19:08:57;;;;;;;10.43;5.43;;;;;;;;;;5001163;28;20035;-86
2021/12/26 19:11:41;;;;;;;10.02;6.38;;;;;;;;;;4995133;28;20041;-86
2021/12/26 19:14:08;;;;;;;31.30;7.82;;;;;;;;;;4996111;28;20105;-86
2021/12/26 19:24:00;;;;;;;26.98;7.85;;;;;;;;;;4973316;28;20045;-87
2021/12/26 19:29:27;;;;;;;14.45;7.53;;;;;;;;;;5203360;22;20038;-85
2021/12/26 19:35:04;;;;;;;47.30;10.27;;;;;;;;;;5401697;22;20059;-85
2021/12/26 19:37:30;;;;;;;15.80;8.43;;;;;;;;;;4994894;28;20050;-85
2021/12/26 19:39:56;;;;;;;14.90;7.30;;;;;;;;;;4993204;28;20431;-85
2021/12/26 19:42:22;;;;;;;17.17;7.53;;;;;;;;;;4993065;28;20047;-86
2021/12/26 19:44:48;;;;;;;13.13;7.25;;;;;;;;;;4992872;28;20021;-85
2021/12/26 19:47:14;;;;;;;12.02;7.47;;;;;;;;;;4994060;28;20093;-85
2021/12/26 19:49:40;;;;;;;13.13;7.45;;;;;;;;;;4995738;28;20046;-85
2021/12/26 19:52:06;;;;;;;14.55;7.82;;;;;;;;;;4995279;28;20486;-86
2021/12/26 19:54:32;;;;;;;24.13;10.32;;;;;;;;;;4994958;28;20037;-85
2021/12/26 19:57:00;;;;;;;15.52;7.78;;;;;;;;;;4992843;28;20520;-85
2021/12/26 19:59:26;;;;;;;13.48;7.80;;;;;;;;;;4992791;28;20163;-86
2021/12/26 20:01:52;;;;;;;24.27;7.65;;;;;;;;;;4993009;28;20026;-85
2021/12/26 20:04:19;;;;;;;36.63;7.80;;;;;;;;;;4994697;28;20029;-85
2021/12/26 20:06:46;;;;;;;51.13;8.93;;;;;;;;;;4993959;28;20031;-85
2021/12/26 20:09:12;;;;;;;16.05;8.60;;;;;;;;;;4994077;28;20037;-85
2021/12/26 20:11:39;;;;;;;13.90;7.68;;;;;;;;;;4992546;28;20121;-86
2021/12/26 20:14:05;;;;;;;12.30;7.40;;;;;;;;;;4994079;28;20494;-87
2021/12/26 20:16:32;;;;;;;13.52;7.55;;;;;;;;;;4993307;28;20027;-87
2021/12/26 20:19:00;;;;;;;11.98;7.20;;;;;;;;;;4992625;28;20117;-86
2021/12/26 20:21:26;;;;;;;12.35;7.43;;;;;;;;;;4994153;28;20113;-87
2021/12/26 20:23:54;;;;;;;11.90;6.85;;;;;;;;;;4993912;28;20137;-86
2021/12/26 20:26:21;;;;;;;14.60;6.80;;;;;;;;;;4993260;28;20054;-87
2021/12/26 20:28:50;;;;;;;9.85;6.47;;;;;;;;;;4993477;28;20050;-86
2021/12/26 20:31:16;;;;;;;10.52;6.20;;;;;;;;;;4992275;28;20030;-87
2021/12/26 20:33:42;;;;;;;12.65;6.70;;;;;;;;;;4991979;28;20393;-86
2021/12/26 20:36:08;;;;;;;10.65;6.50;;;;;;;;;;4992175;28;20038;-86
2021/12/26 20:38:37;;;;;;;12.23;6.57;;;;;;;;;;4993560;28;20437;-85
2021/12/26 20:41:04;;;;;;;13.02;6.85;;;;;;;;;;4992343;28;20101;-86
2021/12/26 20:43:31;;;;;;;10.43;6.43;;;;;;;;;;4992084;28;20088;-87
2021/12/26 20:45:57;;;;;;;19.50;7.65;;;;;;;;;;4993291;28;20117;-87
2021/12/26 20:48:52;;;;;;;;;;;;;;;;;;;;;
2021/12/26 20:57:50;;;;;;;22.48;7.85;;;;;;;;;;4901044;29;20032;-86
2021/12/26 21:06:37;;;;;;;16.80;8.32;;;;;;;;;;4886784;29;20036;-85
2021/12/26 21:14:42;;;;;;;16.70;7.90;;;;;;;;;;4991365;28;20101;-86
2021/12/26 21:49:20;;;;;;;7.10;5.45;;;;;;;;;;4918437;29;20027;-86
2021/12/26 21:51:46;;;;;;;10.25;6.30;;;;;;;;;;4955840;29;20036;-85
2021/12/26 21:54:14;;;;;;;10.70;5.85;;;;;;;;;;4973206;29;20019;-85
2021/12/26 22:02:59;;;;;;;9.05;6.25;;;;;;;;;;5001578;22;20514;-86
2021/12/26 22:05:44;;;;;;;10.73;6.78;;;;;;;;;;4938690;29;20123;-86
2021/12/26 22:08:11;;;;;;;12.77;7.70;;;;;;;;;;4954814;29;20082;-86
2021/12/26 22:49:31;;;;;;;12.23;7.80;;;;;;;;;;4875855;29;20172;-87
2021/12/26 22:52:00;;;;;;;12.18;7.78;;;;;;;;;;4931643;29;20044;-86
2021/12/26 22:54:26;;;;;;;13.88;7.60;;;;;;;;;;4929628;29;20031;-86
2021/12/26 22:56:54;;;;;;;11.48;8.05;;;;;;;;;;4935941;28;20045;-86
2021/12/26 22:59:20;;;;;;;13.05;7.90;;;;;;;;;;4996338;28;20018;-86
2021/12/26 23:01:46;;;;;;;13.50;8.35;;;;;;;;;;4993923;28;20105;-87
2021/12/26 23:04:12;;;;;;;12.90;7.80;;;;;;;;;;4991325;28;20031;-86
2021/12/26 23:06:38;;;;;;;18.63;8.40;;;;;;;;;;4995192;28;20025;-86
2021/12/26 23:09:04;;;;;;;16.05;9.70;;;;;;;;;;4996246;28;20026;-86
2021/12/26 23:11:30;;;;;;;16.85;8.50;;;;;;;;;;4995869;28;20026;-86
2021/12/26 23:13:56;;;;;;;16.08;10.23;;;;;;;;;;4993531;28;20014;-86
2021/12/26 23:16:22;;;;;;;16.63;9.45;;;;;;;;;;4992774;28;20026;-86
2021/12/26 23:18:56;;;;;;;17.30;10.00;;;;;;;;;;4994798;28;20482;-86
2021/12/26 23:21:22;;;;;;;14.25;8.65;;;;;;;;;;4994855;28;20022;-86
2021/12/26 23:23:48;;;;;;;15.07;9.00;;;;;;;;;;4995032;28;20169;-86
2021/12/26 23:26:14;;;;;;;16.30;8.65;;;;;;;;;;4995720;28;20026;-87
2021/12/26 23:28:40;;;;;;;15.90;9.85;;;;;;;;;;4994835;28;20038;-86
2021/12/26 23:31:06;;;;;;;17.63;10.23;;;;;;;;;;4993170;28;20030;-87
2021/12/26 23:33:32;;;;;;;18.63;9.90;;;;;;;;;;4994606;28;20465;-86
2021/12/26 23:35:58;;;;;;;16.45;9.50;;;;;;;;;;4994815;28;20054;-86
2021/12/26 23:38:24;;;;;;;17.42;9.80;;;;;;;;;;4994343;28;20084;-86
2021/12/26 23:40:56;;;;;;;17.35;10.15;;;;;;;;;;4994200;28;20417;-86
2021/12/26 23:43:31;;;;;;;16.35;9.73;;;;;;;;;;4993122;28;20104;-85
2021/12/26 23:45:57;;;;;;;18.85;11.02;;;;;;;;;;4991994;28;20360;-86
2021/12/26 23:48:23;;;;;;;20.20;10.80;;;;;;;;;;4994042;28;20022;-86
2021/12/26 23:50:49;;;;;;;19.52;11.15;;;;;;;;;;4992677;28;20045;-86
2021/12/26 23:53:15;;;;;;;17.60;10.30;;;;;;;;;;4990005;28;20050;-86
2021/12/26 23:55:41;;;;;;;19.40;10.85;;;;;;;;;;5004933;28;20037;-86
2021/12/26 23:58:07;;;;;;;16.67;10.07;;;;;;;;;;4993691;28;20025;-86
